AirNav   Everest Fuels
 
 885 users online  

2I3 Rough River State Park Airport
Falls of Rough, Kentucky, USA

GOING TO FALLS OF ROUGH?


FAA INFORMATION EFFECTIVE 21 MAY 2020

Location

FAA Identifier: 2I3
Lat/Long: 37-36-35.3000N 086-30-25.8000W
37-36.588333N 086-30.430000W
37.6098056,-86.5071667
(estimated)
Elevation: 577 ft. / 175.9 m (surveyed)
Variation: 01W (1985)
From city: 3 miles NE of FALLS-OF-ROUGH, KY
Time zone: UTC -5 (UTC -6 during Standard Time)
Zip code: 40119

Airport Operations

Airport use: Open to the public
Activation date: 05/1963
Control tower: no
ARTCC: INDIANAPOLIS CENTER
FSS: LOUISVILLE FLIGHT SERVICE STATION
NOTAMs facility: LOU (NOTAM-D service available)
Attendance: UNATNDD
Wind indicator: lighted
Segmented circle: yes
Lights: ACTVT MIRL RY 2/20; REIL RY 2 & 20 - CTAF. PAPI RY 2 & 20 OPER CONTINUOUSLY.
Beacon: white-green (lighted land airport)
Operates sunset to sunrise.

Airport Communications

CTAF/UNICOM: 122.8
WX AWOS-3PT at JQD (19 nm SW): 132.1 (270-298-7936)

Nearby radio navigation aids

VOR radial/distance  VOR name  Freq  Var
MYSr217/(21.1)MYSTIC VOR108.2001W
FTKr236/31.0FORT KNOX VOR/DME109.6001W
OWBr108/32.3OWENSBORO VOR/DME108.6004W
CCTr070/38.5CENTRAL CITY VORTAC109.8001W
EWOr267/39.5NEW HOPE VOR/DME110.8001E

 
NDB name  Hdg/Dist  Freq  Var  ID
GODMAN233/32.739603WGOI --. --- ..

Airport Services

Parking: tiedowns
Airframe service: NONE
Powerplant service: NONE
Bottled oxygen: NONE
Bulk oxygen: NONE

Runway Information

Runway 2/20

Dimensions: 3200 x 75 ft. / 975 x 23 m
Surface: asphalt, in good condition
Weight bearing capacity: 
Single wheel: 8.0
Runway edge lights: medium intensity
RUNWAY 2  RUNWAY 20
Latitude: 37-36.336833N37-36.841000N
Longitude: 086-30.527167W086-30.332667W
Traffic pattern: leftleft
Markings: basic, in good conditionbasic, in good condition
Visual slope indicator: 2-light PAPI on left (4.00 degrees glide path)4-light PAPI on left (5.00 degrees glide path)
Runway end identifier lights: yesyes
Obstructions: none44 ft. trees, 878 ft. from runway, 144 ft. left of centerline, 15:1 slope to clear

Airport Ownership and Management from official FAA records

Ownership: Publicly-owned
Owner: KY DEPT OF PARKS
2 HUDSON HOLLOW UNIT 1
FRANKFORT, KY 40601
Phone (502) 892-3367
Manager: MICHAEL RICKS, PARK MANAGER
450 LODGE ROAD
FALLS OF ROUGH, KY 40119
Phone 270-257-2311

Airport Operational Statistics

Aircraft operations: avg 25/day *
78% transient general aviation
13% local general aviation
7% military
2% air taxi
* for 12-month period ending 04 December 2019

Additional Remarks

TRANSPORTATION TO PARK LODGE AVAIL 270-257-2311.
FOR CD CTC INDIANAPOLIS ARTCC AT 317-247-2411.

Instrument Procedures

There are no published instrument procedures at 2I3.

Some nearby airports with instrument procedures:

I93 - Breckinridge County Airport (11 nm N)
M20 - Leitchfield-Grayson County Airport (17 nm SE)
KJQD - Ohio County Airport (19 nm SW)
KTEL - Perry County Municipal Airport (26 nm N)
KY8 - Hancock County Airport-Ron Lewis Field (26 nm NW)
 
Loc | Ops | Rwys | IFR | FBO | Links
Com | Nav | Svcs | Stats | Notes
Area around 2I3 (Rough River State Park Airport)
 
Road maps at: MapQuest Bing Google
 
Aerial photo
WARNING: Photo may not be current or correct
Aerial photo of 2I3 (Rough River State Park Airport)
Taken in December 2006

Do you have a better or more recent aerial photo of Rough River State Park Airport that you would like to share? If so, please send us your photo.

 
Sectional chart

 
Airport distance calculator
Flying to Rough River State Park Airport? Find the distance to fly.

From to 2I3

Sunrise and sunset
Times for 03-Jun-2020
 Local
(UTC-5)
 Zulu
(UTC)
Morning civil twilight04:5509:55
Sunrise05:2610:26
Sunset20:0201:02
Evening civil twilight20:3301:33

Current date and time
Zulu (UTC)  04-Jun-2020 01:29:47
Local (UTC-5)  03-Jun-2020 20:29:47
 
METAR
KKY8 
26nm NW 
040115Z AUTO 00000KT 10SM CLR 26/26 A2984 RMK A01
KFTK 
30nm NE 
040056Z AUTO 24004KT 10SM CLR 25/18 A2987 RMK AO2 SLP111 T02520176
KEKX 
31nm E 
040115Z AUTO 25003KT 10SM CLR 25/18 A2988 RMK AO2 T02500175
KOWB 
32nm W 
040056Z 23007KT 10SM CLR 27/19 A2985 RMK AO2 SLP105 T02670194
KM21 
39nm SW 
040115Z AUTO 00000KT 10SM CLR 26/18 A2987 RMK AO2 T02610179
KBWG 
39nm S 
040053Z AUTO 25007KT 10SM CLR 28/18 A2987 RMK AO2 SLP109 T02830183
KGLW 
44nm SE 
040115Z AUTO 22003KT 10SM CLR 26/13 A2989 RMK AO2 T02610130
KHNB 
44nm NW 
040056Z AUTO 22006KT 10SM CLR 27/18 A2985 RMK AO2 SLP103 T02670183
K2I0 
45nm W 
040115Z AUTO 21004KT 10SM CLR 27/17 A2985 RMK AO2 T02680166
KI19 
46nm NW 
040115Z AUTO 24007KT 10SM VCTS SCT055 23/18 A2986 RMK AO2 LTG DSNT SE THRU W T02260175
TAF
KFTK 
30nm NE 
032025Z 0320/0423 22010G15KT 9999 SCT200 QNH2984INS BECMG 0323/0324 22009KT 9999 FEW030 SCT100 QNH2983INS BECMG 0406/0407 22009KT 8000 -SHRA SCT030 BKN050 QNH2983INS BECMG 0412/0413 23010G15KT 9999 NSW FEW030 SCT050 BKN200 QNH2982INS TEMPO 0420/0423 23025G35KT 4800 -TSRA BKN030CB OVC050 TX31/0320Z TN20/0410Z
KOWB 
32nm W 
031732Z 0318/0418 25011KT P6SM FEW090 SCT250 FM040500 VRB03KT P6SM VCSH SCT050 BKN200
NOTAMs
Click for the latest NOTAMs
NOTAMs are issued by the DoD/FAA and will open in a separate window not controlled by AirNav.

 

 
 

Would you like to see your business listed on this page?

 If your business provides an interesting product or service to pilots, flight crews, aircraft, or users of the Rough River State Park Airport, you should consider listing it here.  To start the listing process, click on the button below
 
Add a business
 

Other Pages about Rough River State Park Airport

Update a link
 
Copyright © AirNav, LLC. All rights reserved. Privacy Policy  Contact